Time;durP1;ratioP1;P1;durP2;ratioP2;P2;SDS_P1;SDS_P2;PMS_P1;PMS_P2;Temp;Humidity;BMP_temperature;BMP_pressure;BME280_temperature;BME280_humidity;BME280_pressure;Samples;Min_cycle;Max_cycle;Signal;HPM_P1;HPM_P2
2022/05/18 00:01:39;;;;;;;10.20;7.18;;;17.60;99.90;;;;;;5047408;28;20052;-52
2022/05/18 00:04:05;;;;;;;9.25;6.70;;;17.60;99.90;;;;;;5037656;28;20442;-51
2022/05/18 00:06:31;;;;;;;8.00;7.20;;;17.60;99.90;;;;;;5011236;28;20053;-54
2022/05/18 00:08:57;;;;;;;10.32;7.32;;;17.60;99.90;;;;;;5038053;28;20478;-54
2022/05/18 00:11:24;;;;;;;12.65;7.13;;;17.60;99.90;;;;;;5062728;28;20501;-51
2022/05/18 00:13:52;;;;;;;10.55;7.32;;;17.50;99.90;;;;;;5046069;28;20052;-48
2022/05/18 00:16:21;;;;;;;11.13;7.43;;;17.50;99.90;;;;;;5053926;28;20233;-48
2022/05/18 00:18:48;;;;;;;10.95;7.40;;;17.40;99.90;;;;;;5062288;28;20111;-52
2022/05/18 00:21:14;;;;;;;11.48;7.40;;;17.40;99.90;;;;;;5048547;28;20049;-51
2022/05/18 00:23:40;;;;;;;13.30;7.35;;;17.40;99.90;;;;;;5054605;28;20193;-50
2022/05/18 00:26:06;;;;;;;8.68;6.90;;;17.40;99.90;;;;;;5033848;28;20140;-51
2022/05/18 00:28:33;;;;;;;13.45;7.25;;;17.40;99.90;;;;;;5066587;28;20051;-51
2022/05/18 00:31:00;;;;;;;13.88;8.38;;;17.30;99.90;;;;;;5084178;28;20048;-50
2022/05/18 00:33:27;;;;;;;12.43;6.90;;;17.30;99.90;;;;;;5062944;28;20510;-51
2022/05/18 00:35:53;;;;;;;13.18;8.30;;;17.20;99.90;;;;;;5066143;28;20716;-46
2022/05/18 00:38:19;;;;;;;10.52;8.15;;;17.20;99.90;;;;;;5066621;28;20053;-48
2022/05/18 00:40:49;;;;;;;10.82;7.45;;;17.20;99.90;;;;;;5048077;28;20049;-52
2022/05/18 00:43:37;;;;;;;11.85;7.00;;;17.20;99.90;;;;;;5048533;28;20527;-49
2022/05/18 00:46:07;;;;;;;12.20;7.53;;;17.10;99.90;;;;;;5062984;28;20078;-57
2022/05/18 00:48:33;;;;;;;11.57;7.65;;;17.00;99.90;;;;;;5057154;28;20080;-57
2022/05/18 00:51:03;;;;;;;8.65;6.90;;;17.00;99.90;;;;;;5065035;28;20056;-56
2022/05/18 00:53:34;;;;;;;10.60;7.88;;;17.00;99.90;;;;;;5064519;28;20549;-57
2022/05/18 00:56:06;;;;;;;9.80;6.88;;;17.00;99.90;;;;;;5056476;28;20084;-56
2022/05/18 00:58:42;;;;;;;10.65;6.82;;;17.00;99.90;;;;;;5063962;28;20056;-56
2022/05/18 01:01:08;;;;;;;11.32;7.53;;;16.90;99.90;;;;;;5047192;28;20668;-53
2022/05/18 01:03:40;;;;;;;10.52;6.85;;;16.90;99.90;;;;;;5046188;28;20045;-47
2022/05/18 01:06:43;;;;;;;11.25;7.65;;;16.90;99.90;;;;;;5063709;28;20131;-49
2022/05/18 01:09:18;;;;;;;11.30;6.95;;;16.90;99.90;;;;;;5064306;28;20088;-50
2022/05/18 01:11:44;;;;;;;10.77;7.10;;;16.90;99.90;;;;;;5067306;28;20055;-51
2022/05/18 01:14:21;;;;;;;7.88;6.95;;;16.90;99.90;;;;;;5049550;28;20127;-57
2022/05/18 01:16:49;;;;;;;11.65;6.82;;;16.90;99.90;;;;;;5076599;28;20040;-57
2022/05/18 01:19:33;;;;;;;9.18;7.32;;;16.80;99.90;;;;;;5066650;28;20534;-57
2022/05/18 01:22:19;;;;;;;9.27;5.88;;;16.80;99.90;;;;;;5086707;28;20364;-54
2022/05/18 01:25:16;;;;;;;8.30;5.88;;;16.80;99.90;;;;;;5061615;28;20473;-57
2022/05/18 01:27:42;;;;;;;7.95;6.50;;;16.80;99.90;;;;;;5075249;28;20389;-57
2022/05/18 01:30:09;;;;;;;8.60;6.72;;;16.80;99.90;;;;;;5064997;28;20048;-56
2022/05/18 01:32:41;;;;;;;8.93;6.88;;;16.70;99.90;;;;;;5048943;28;20835;-57
2022/05/18 01:35:10;;;;;;;8.82;6.35;;;16.70;99.90;;;;;;5068118;28;20125;-57
2022/05/18 01:37:36;;;;;;;7.22;6.50;;;16.70;99.90;;;;;;5070985;28;20085;-56
2022/05/18 01:40:13;;;;;;;11.70;7.15;;;16.70;99.90;;;;;;5066864;28;20044;-57
2022/05/18 01:42:47;;;;;;;9.65;6.38;;;16.70;99.90;;;;;;5084897;28;20576;-56
2022/05/18 01:45:14;;;;;;;9.00;6.68;;;16.70;99.90;;;;;;5066020;28;20547;-56
2022/05/18 01:47:41;;;;;;;10.50;6.63;;;16.70;99.90;;;;;;5084436;28;20481;-53
2022/05/18 01:50:14;;;;;;;8.18;6.55;;;16.70;99.90;;;;;;5043281;28;20482;-55
2022/05/18 01:52:40;;;;;;;10.68;6.15;;;16.70;99.90;;;;;;5048050;28;20073;-57
2022/05/18 01:55:07;;;;;;;9.88;6.55;;;16.70;99.90;;;;;;5031120;28;20057;-53
2022/05/18 01:57:35;;;;;;;9.32;6.53;;;16.60;99.90;;;;;;5080222;28;20571;-55
2022/05/18 02:00:03;;;;;;;12.70;6.90;;;16.60;99.90;;;;;;5066634;28;20583;-55
2022/05/18 02:02:40;;;;;;;8.80;6.65;;;16.60;99.90;;;;;;5083995;28;20051;-55
2022/05/18 02:05:07;;;;;;;8.18;6.15;;;16.60;99.90;;;;;;5066033;28;20440;-50
2022/05/18 02:07:33;;;;;;;7.88;6.25;;;16.60;99.90;;;;;;5068662;28;20884;-49
2022/05/18 02:09:59;;;;;;;8.55;7.13;;;16.50;99.90;;;;;;5078949;28;20299;-51
2022/05/18 02:12:26;;;;;;;9.68;6.70;;;16.50;99.90;;;;;;5084303;28;20528;-50
2022/05/18 02:14:52;;;;;;;9.10;6.47;;;16.40;99.90;;;;;;5055292;28;20083;-53
2022/05/18 02:17:18;;;;;;;10.55;6.75;;;16.40;99.90;;;;;;5056800;28;20400;-50
2022/05/18 02:19:44;;;;;;;11.98;7.65;;;16.40;99.90;;;;;;5085721;28;20044;-50
2022/05/18 02:22:10;;;;;;;8.35;7.43;;;16.40;99.90;;;;;;5046949;28;20054;-52
2022/05/18 02:24:36;;;;;;;9.85;8.20;;;16.40;99.90;;;;;;5086582;28;20783;-52
2022/05/18 02:27:02;;;;;;;16.58;8.52;;;16.30;99.90;;;;;;5035218;28;20056;-52
2022/05/18 02:29:29;;;;;;;9.30;7.55;;;16.30;99.90;;;;;;5078804;28;20028;-47
2022/05/18 02:31:55;;;;;;;10.82;7.93;;;16.30;99.90;;;;;;5050272;28;20774;-47
2022/05/18 02:34:21;;;;;;;11.02;7.43;;;16.20;99.90;;;;;;5050313;28;20044;-47
2022/05/18 02:36:48;;;;;;;10.77;7.82;;;16.20;99.90;;;;;;5075418;28;20460;-48
2022/05/18 02:39:15;;;;;;;13.13;8.55;;;16.20;99.90;;;;;;5067400;28;20680;-50
2022/05/18 02:41:41;;;;;;;9.60;7.97;;;16.10;99.90;;;;;;5083824;28;20056;-48
2022/05/18 02:44:07;;;;;;;13.88;9.15;;;16.10;99.90;;;;;;5034664;28;20405;-50
2022/05/18 02:46:33;;;;;;;11.20;8.32;;;16.00;99.90;;;;;;5066890;28;20127;-51
2022/05/18 02:48:59;;;;;;;11.50;8.60;;;16.00;99.90;;;;;;5085825;28;20122;-46
2022/05/18 02:51:25;;;;;;;9.88;7.85;;;16.00;99.90;;;;;;5060828;28;20571;-50
2022/05/18 02:53:51;;;;;;;9.60;8.10;;;16.00;99.90;;;;;;5065812;28;20094;-53
2022/05/18 02:56:23;;;;;;;9.07;7.93;;;15.80;99.90;;;;;;5036762;28;20060;-51
2022/05/18 02:58:52;;;;;;;15.40;8.50;;;15.80;99.90;;;;;;5065898;28;20055;-54
2022/05/18 03:01:28;;;;;;;11.45;8.88;;;15.80;99.90;;;;;;5074271;28;20047;-53
2022/05/18 03:03:55;;;;;;;9.88;8.13;;;15.70;99.90;;;;;;5047390;28;20767;-53
2022/05/18 03:06:23;;;;;;;9.43;7.53;;;15.70;99.90;;;;;;5049394;28;20044;-51
2022/05/18 03:08:50;;;;;;;11.25;8.98;;;15.60;99.90;;;;;;5063210;28;20052;-53
2022/05/18 03:11:18;;;;;;;10.43;7.85;;;15.60;99.90;;;;;;5054450;28;20123;-52
2022/05/18 03:13:44;;;;;;;10.63;8.73;;;15.50;99.90;;;;;;5085337;28;20052;-50
2022/05/18 03:16:10;;;;;;;9.82;8.32;;;15.50;99.90;;;;;;5067146;28;20052;-48
2022/05/18 03:18:37;;;;;;;11.13;7.50;;;15.40;99.90;;;;;;5050326;28;20048;-50
2022/05/18 03:23:48;;;;;;;10.18;8.30;;;15.30;99.90;;;;;;5084444;28;20051;-47
2022/05/18 03:26:19;;;;;;;10.70;9.60;;;15.20;99.90;;;;;;5084621;28;20048;-56
2022/05/18 03:28:48;;;;;;;11.95;9.40;;;15.20;99.90;;;;;;5068077;28;20809;-56
2022/05/18 03:31:16;;;;;;;13.13;9.70;;;15.20;99.90;;;;;;5047068;28;20397;-55
2022/05/18 03:33:43;;;;;;;13.40;9.25;;;15.10;99.90;;;;;;5065189;28;20523;-55
2022/05/18 03:36:12;;;;;;;11.07;9.45;;;15.10;99.90;;;;;;5083022;28;20052;-56
2022/05/18 03:38:40;;;;;;;12.18;8.85;;;15.00;99.90;;;;;;5083452;28;20158;-56
2022/05/18 03:41:06;;;;;;;12.32;8.93;;;15.00;99.90;;;;;;5065167;28;20457;-57
2022/05/18 03:43:32;;;;;;;12.52;9.60;;;15.00;99.90;;;;;;5053132;28;20045;-57
2022/05/18 03:46:02;;;;;;;11.98;10.00;;;15.00;99.90;;;;;;5066715;28;20052;-57
2022/05/18 03:48:29;;;;;;;16.15;10.10;;;15.00;99.90;;;;;;5069323;28;20625;-57
2022/05/18 03:50:57;;;;;;;11.57;10.32;;;15.00;99.90;;;;;;5087233;28;20059;-56
2022/05/18 03:53:24;;;;;;;11.65;10.25;;;15.00;99.90;;;;;;5086536;28;20155;-57
2022/05/18 03:55:51;;;;;;;14.52;11.52;;;14.90;99.90;;;;;;5087413;28;20048;-57
2022/05/18 03:58:18;;;;;;;12.25;10.88;;;14.90;99.90;;;;;;5069322;28;20052;-57
2022/05/18 04:00:46;;;;;;;16.42;10.50;;;14.90;99.90;;;;;;5053051;28;20128;-55
2022/05/18 04:03:14;;;;;;;13.55;10.35;;;15.00;99.90;;;;;;5069389;28;20052;-58
2022/05/18 04:05:40;;;;;;;13.48;11.02;;;15.00;99.90;;;;;;5079494;28;20060;-56
2022/05/18 04:08:08;;;;;;;12.77;10.13;;;15.00;99.90;;;;;;5085414;28;20135;-57
2022/05/18 04:10:34;;;;;;;13.73;11.15;;;15.00;99.90;;;;;;5088115;28;20063;-48
2022/05/18 04:13:00;;;;;;;11.15;10.02;;;15.00;99.90;;;;;;5073741;28;20048;-52
2022/05/18 04:15:27;;;;;;;14.02;10.65;;;15.00;99.90;;;;;;5068346;28;20052;-50
2022/05/18 04:17:55;;;;;;;15.15;10.63;;;15.00;99.90;;;;;;5077248;28;20101;-53
2022/05/18 04:20:22;;;;;;;12.55;10.25;;;15.00;99.90;;;;;;5066877;28;20622;-58
2022/05/18 04:22:50;;;;;;;12.32;11.13;;;15.00;99.90;;;;;;5078824;28;20051;-59
2022/05/18 04:25:20;;;;;;;12.60;11.25;;;15.00;99.90;;;;;;5068434;28;20583;-59
2022/05/18 04:27:49;;;;;;;13.02;11.63;;;15.10;99.90;;;;;;5075769;28;20105;-50
2022/05/18 04:30:17;;;;;;;12.90;11.55;;;15.10;99.90;;;;;;5069728;28;20052;-49
2022/05/18 04:32:43;;;;;;;13.13;10.35;;;15.10;99.90;;;;;;5055290;28;20544;-55
2022/05/18 04:35:12;;;;;;;12.30;10.52;;;15.10;99.90;;;;;;5086900;28;20113;-53
2022/05/18 04:37:38;;;;;;;12.00;10.80;;;15.20;99.90;;;;;;5061789;28;20049;-51
2022/05/18 04:40:06;;;;;;;12.77;10.77;;;15.20;99.90;;;;;;5068168;28;20068;-51
2022/05/18 04:42:32;;;;;;;16.02;12.65;;;15.30;99.90;;;;;;5083459;28;20083;-57
2022/05/18 04:44:58;;;;;;;13.10;11.70;;;15.30;99.90;;;;;;5084104;28;20044;-57
2022/05/18 04:47:25;;;;;;;14.75;11.52;;;15.40;99.90;;;;;;5075712;28;20496;-58
2022/05/18 04:49:52;;;;;;;14.68;10.90;;;15.50;99.90;;;;;;5086411;28;20127;-56
2022/05/18 04:52:20;;;;;;;12.82;11.35;;;15.50;99.90;;;;;;5041723;28;20055;-54
2022/05/18 04:54:47;;;;;;;14.70;11.93;;;15.50;99.90;;;;;;5041511;28;20072;-56
2022/05/18 04:57:14;;;;;;;12.63;11.30;;;15.60;99.90;;;;;;5079665;28;20135;-59
2022/05/18 04:59:40;;;;;;;13.30;11.52;;;15.70;99.90;;;;;;5064466;28;20048;-59
2022/05/18 05:02:06;;;;;;;13.63;12.32;;;15.70;99.90;;;;;;5079817;28;20044;-58
2022/05/18 05:04:33;;;;;;;12.65;10.82;;;16.00;99.90;;;;;;5050892;28;20037;-59
2022/05/18 05:06:59;;;;;;;14.77;10.20;;;16.40;99.90;;;;;;5049900;28;20178;-59
2022/05/18 05:09:26;;;;;;;11.35;10.23;;;16.80;99.90;;;;;;5065432;28;20047;-58
2022/05/18 05:11:53;;;;;;;13.68;10.23;;;17.20;99.90;;;;;;5055486;28;20087;-55
2022/05/18 05:14:20;;;;;;;11.55;10.23;;;17.50;99.90;;;;;;5067424;28;20576;-59
2022/05/18 05:16:47;;;;;;;12.77;9.95;;;17.70;99.90;;;;;;5051172;28;20184;-58
2022/05/18 05:19:14;;;;;;;13.65;9.63;;;18.00;99.90;;;;;;5066217;28;20145;-59
2022/05/18 05:21:42;;;;;;;9.90;8.98;;;18.20;99.90;;;;;;5083884;28;20788;-59
2022/05/18 05:24:16;;;;;;;12.07;9.75;;;18.40;99.90;;;;;;5066364;28;20051;-59
2022/05/18 05:26:43;;;;;;;12.15;8.90;;;18.50;99.90;;;;;;5030216;28;20067;-59
2022/05/18 05:29:10;;;;;;;10.43;8.95;;;18.70;99.90;;;;;;5067469;28;20601;-59
2022/05/18 05:31:37;;;;;;;11.35;9.38;;;19.00;99.90;;;;;;5049892;28;20135;-59
2022/05/18 05:34:04;;;;;;;10.45;8.43;;;19.20;99.90;;;;;;5077749;28;20055;-59
2022/05/18 05:36:31;;;;;;;11.18;9.70;;;19.40;99.90;;;;;;5083768;28;20055;-59
2022/05/18 05:38:57;;;;;;;10.07;8.88;;;19.50;99.90;;;;;;5065739;28;20056;-59
2022/05/18 05:41:24;;;;;;;10.05;9.05;;;19.60;99.90;;;;;;5048771;28;20056;-59
2022/05/18 05:43:50;;;;;;;12.15;9.43;;;19.60;99.90;;;;;;5066239;28;20160;-58
2022/05/18 05:46:17;;;;;;;10.52;8.32;;;19.80;99.90;;;;;;5072888;28;20048;-58
2022/05/18 05:48:45;;;;;;;11.35;8.45;;;20.00;99.90;;;;;;5068577;28;20044;-59
2022/05/18 05:51:13;;;;;;;11.90;8.27;;;20.10;99.90;;;;;;5086466;28;20055;-58
2022/05/18 05:53:40;;;;;;;10.32;8.50;;;20.30;99.90;;;;;;5086488;28;20106;-54
2022/05/18 05:56:07;;;;;;;10.20;9.10;;;20.30;99.90;;;;;;5067829;28;20135;-58
2022/05/18 05:58:36;;;;;;;11.95;9.00;;;20.40;99.90;;;;;;5081787;28;20048;-58
2022/05/18 06:01:03;;;;;;;10.93;8.48;;;20.40;99.90;;;;;;5086013;28;20598;-48
2022/05/18 06:03:30;;;;;;;10.52;8.45;;;20.60;99.90;;;;;;5068073;28;20047;-49
2022/05/18 06:05:56;;;;;;;9.60;8.35;;;20.70;99.90;;;;;;5080651;28;20147;-45
2022/05/18 06:08:23;;;;;;;37.00;10.40;;;20.70;99.90;;;;;;5050729;28;20113;-47
2022/05/18 06:10:50;;;;;;;11.00;8.68;;;20.70;99.90;;;;;;5050941;28;20508;-48
2022/05/18 06:13:16;;;;;;;12.10;9.05;;;20.60;99.90;;;;;;5067531;28;20514;-48
2022/05/18 06:15:43;;;;;;;12.52;9.32;;;20.80;99.90;;;;;;5035671;28;20059;-50
2022/05/18 06:18:10;;;;;;;12.10;8.60;;;20.90;99.90;;;;;;5031738;28;20388;-46
2022/05/18 06:20:36;;;;;;;11.20;8.85;;;21.00;99.90;;;;;;5066994;28;20048;-50
2022/05/18 06:23:07;;;;;;;10.90;8.75;;;21.20;99.90;;;;;;5070101;28;20082;-50
2022/05/18 06:25:34;;;;;;;10.38;9.07;;;21.30;99.90;;;;;;5050858;28;20059;-56
2022/05/18 06:28:00;;;;;;;12.32;8.60;;;21.30;99.90;;;;;;5077732;28;20047;-57
2022/05/18 06:30:26;;;;;;;10.27;8.88;;;21.50;99.90;;;;;;5090041;28;20087;-57
2022/05/18 06:32:53;;;;;;;11.93;9.40;;;21.70;99.90;;;;;;5085029;28;20048;-55
2022/05/18 06:35:19;;;;;;;13.60;11.00;;;21.70;99.90;;;;;;5066519;28;20060;-56
2022/05/18 06:37:45;;;;;;;12.48;8.52;;;21.70;99.90;;;;;;5033099;28;20487;-58
2022/05/18 06:40:12;;;;;;;11.50;9.13;;;22.00;99.90;;;;;;5084091;28;20056;-58
2022/05/18 06:42:39;;;;;;;9.93;8.20;;;22.00;99.90;;;;;;5050606;28;20044;-59
2022/05/18 06:45:08;;;;;;;12.82;9.38;;;22.20;99.90;;;;;;5066853;28;20096;-59
2022/05/18 06:47:34;;;;;;;10.75;8.20;;;22.40;99.90;;;;;;5051022;28;20184;-59
2022/05/18 06:50:01;;;;;;;11.50;8.38;;;22.70;99.90;;;;;;5083976;28;20137;-59
2022/05/18 06:52:27;;;;;;;10.95;9.07;;;22.90;99.90;;;;;;5086217;28;20056;-44
2022/05/18 06:54:54;;;;;;;9.98;8.93;;;22.90;99.90;;;;;;5082032;28;20059;-59
2022/05/18 06:57:20;;;;;;;11.32;8.60;;;23.20;99.90;;;;;;5058284;28;20048;-58
2022/05/18 06:59:46;;;;;;;11.48;8.98;;;23.30;99.90;;;;;;5057414;28;20532;-58
2022/05/18 07:02:13;;;;;;;13.65;9.07;;;23.40;99.90;;;;;;5081062;28;20101;-49
2022/05/18 07:04:39;;;;;;;11.90;8.57;;;23.50;99.90;;;;;;5058944;28;20122;-45
2022/05/18 07:07:05;;;;;;;9.25;8.07;;;23.80;99.90;;;;;;5083512;28;20122;-58
2022/05/18 07:09:31;;;;;;;11.65;8.45;;;23.90;99.90;;;;;;5084615;28;20058;-57
2022/05/18 07:11:58;;;;;;;8.65;7.75;;;24.10;99.90;;;;;;5066684;28;20504;-59
2022/05/18 07:14:26;;;;;;;11.13;7.97;;;24.40;99.90;;;;;;5066580;28;20127;-58
2022/05/18 07:16:53;;;;;;;9.80;7.60;;;24.40;99.90;;;;;;5083130;28;20409;-57
2022/05/18 07:19:20;;;;;;;9.57;8.32;;;24.50;99.90;;;;;;5049965;28;20044;-58
2022/05/18 07:21:49;;;;;;;15.20;12.82;;;24.60;99.90;;;;;;5068027;28;20765;-58
2022/05/18 07:24:16;;;;;;;9.15;8.15;;;24.60;99.90;;;;;;5088399;28;20384;-58
2022/05/18 07:26:44;;;;;;;10.35;8.10;;;24.70;99.90;;;;;;5070278;28;20109;-58
2022/05/18 07:29:10;;;;;;;8.82;7.90;;;24.90;99.90;;;;;;5088457;28;20146;-57
2022/05/18 07:34:21;;;;;;;10.52;7.88;;;25.50;99.90;;;;;;5087721;28;20081;-56
2022/05/18 07:36:53;;;;;;;8.73;7.40;;;25.50;99.90;;;;;;5088125;28;20048;-58
2022/05/18 07:39:19;;;;;;;10.57;8.20;;;25.90;99.90;;;;;;5053231;28;20039;-57
2022/05/18 07:41:45;;;;;;;9.93;8.82;;;26.10;99.90;;;;;;5087681;28;20052;-59
2022/05/18 07:44:12;;;;;;;10.80;8.00;;;26.40;99.90;;;;;;5081755;28;20056;-58
2022/05/18 07:46:38;;;;;;;10.63;6.97;;;26.30;99.90;;;;;;5081058;28;20048;-58
2022/05/18 07:49:05;;;;;;;10.23;7.45;;;26.50;99.90;;;;;;5066035;28;20527;-57
2022/05/18 07:51:32;;;;;;;10.63;7.38;;;26.70;99.90;;;;;;5048491;28;20040;-58
2022/05/18 07:53:59;;;;;;;11.75;7.03;;;26.80;99.90;;;;;;5069202;28;20051;-59
2022/05/18 07:56:25;;;;;;;8.93;7.43;;;26.80;99.90;;;;;;5077705;28;20055;-56
2022/05/18 07:58:51;;;;;;;10.25;6.63;;;26.80;99.90;;;;;;5087462;28;20075;-58
2022/05/18 08:01:17;;;;;;;8.52;7.32;;;27.10;99.90;;;;;;5068087;28;20052;-57
2022/05/18 08:03:44;;;;;;;7.10;6.30;;;27.40;99.90;;;;;;5088091;28;20843;-59
2022/05/18 08:06:10;;;;;;;14.27;10.55;;;27.70;99.90;;;;;;5069878;28;20120;-51
2022/05/18 08:08:36;;;;;;;7.70;6.38;;;27.40;99.30;;;;;;5087737;28;20056;-48
2022/05/18 08:16:33;;;;;;;12.73;7.63;;;27.80;99.90;;;;;;5087620;28;20142;-48
2022/05/18 08:18:59;;;;;;;10.20;6.90;;;28.20;99.90;;;;;;5035947;28;20050;-51
2022/05/18 08:21:25;;;;;;;9.60;7.38;;;28.50;99.90;;;;;;5069246;28;20078;-49
2022/05/18 08:23:52;;;;;;;9.32;6.88;;;28.40;98.50;;;;;;5087887;28;20484;-44
2022/05/18 08:26:18;;;;;;;9.93;6.55;;;28.10;99.90;;;;;;5087843;28;20051;-47
2022/05/18 08:28:44;;;;;;;10.10;6.72;;;28.00;99.90;;;;;;5052715;28;20088;-46
2022/05/18 08:31:12;;;;;;;11.32;6.95;;;28.00;99.70;;;;;;5087476;28;20055;-50
2022/05/18 08:33:38;;;;;;;9.93;6.65;;;28.10;99.90;;;;;;5087077;28;20052;-61
2022/05/18 08:36:07;;;;;;;10.40;7.80;;;28.50;99.90;;;;;;5052082;28;20070;-59
2022/05/18 08:38:38;;;;;;;9.80;5.93;;;28.40;99.90;;;;;;5068750;28;20476;-58
2022/05/18 08:41:20;;;;;;;7.75;6.43;;;28.90;99.90;;;;;;5086514;28;20420;-59
2022/05/18 08:43:51;;;;;;;8.63;5.75;;;29.20;98.00;;;;;;5068725;28;20483;-59
2022/05/18 08:46:43;;;;;;;9.80;5.45;;;28.70;97.40;;;;;;5086778;28;20059;-59
2022/05/18 08:49:28;;;;;;;9.82;6.85;;;28.70;99.90;;;;;;5052291;28;20094;-58
2022/05/18 08:52:03;;;;;;;12.82;6.65;;;28.40;98.50;;;;;;5069153;28;20887;-61
2022/05/18 08:54:35;;;;;;;11.20;7.10;;;28.30;99.50;;;;;;5069023;28;20055;-58
2022/05/18 08:57:04;;;;;;;8.35;6.78;;;28.10;99.40;;;;;;5086931;28;20063;-59
2022/05/18 08:59:36;;;;;;;8.77;7.20;;;28.10;99.90;;;;;;5052635;28;20044;-58
2022/05/18 09:02:10;;;;;;;8.40;7.07;;;28.30;99.40;;;;;;5068830;28;20257;-57
2022/05/18 09:04:58;;;;;;;10.38;7.55;;;28.40;99.60;;;;;;5068238;28;20100;-59
2022/05/18 09:07:32;;;;;;;11.75;7.50;;;28.40;99.00;;;;;;5068711;28;20105;-59
2022/05/18 09:10:12;;;;;;;9.50;6.85;;;28.60;98.60;;;;;;5085862;28;20052;-59
2022/05/18 09:12:41;;;;;;;8.45;6.40;;;28.90;99.70;;;;;;5068317;28;20570;-59
2022/05/18 09:15:12;;;;;;;9.90;7.05;;;29.30;99.60;;;;;;5068039;28;20044;-58
2022/05/18 09:17:54;;;;;;;8.88;7.32;;;29.70;96.10;;;;;;5051435;28;20052;-58
2022/05/18 09:20:29;;;;;;;11.30;6.82;;;29.90;90.70;;;;;;5086479;28;20135;-58
2022/05/18 09:23:31;;;;;;;9.02;7.05;;;30.20;94.30;;;;;;5068524;28;20515;-58
2022/05/18 09:26:12;;;;;;;9.27;5.70;;;30.00;91.60;;;;;;5068537;28;20129;-58
2022/05/18 09:28:43;;;;;;;7.97;6.32;;;30.10;90.30;;;;;;5068262;28;20044;-58
2022/05/18 09:31:31;;;;;;;10.23;7.47;;;29.90;91.10;;;;;;5068019;28;20092;-58
2022/05/18 09:34:09;;;;;;;10.85;7.50;;;30.00;91.40;;;;;;5067962;28;20052;-58
2022/05/18 09:37:02;;;;;;;8.55;7.20;;;30.20;91.40;;;;;;5085433;28;20050;-58
2022/05/18 09:39:34;;;;;;;8.23;7.38;;;30.40;91.30;;;;;;5067810;28;20400;-59
2022/05/18 09:42:06;;;;;;;11.70;7.60;;;30.60;87.30;;;;;;5086442;28;20505;-58
2022/05/18 09:44:42;;;;;;;8.57;7.50;;;30.50;90.50;;;;;;5067874;28;20567;-58
2022/05/18 09:47:13;;;;;;;10.10;6.97;;;30.40;89.00;;;;;;5067966;28;20056;-58
2022/05/18 09:49:44;;;;;;;9.52;6.53;;;30.40;88.50;;;;;;5068309;28;20062;-58
2022/05/18 09:52:11;;;;;;;7.95;6.05;;;30.60;90.50;;;;;;5051108;28;20504;-58
2022/05/18 09:54:38;;;;;;;8.20;6.03;;;31.10;83.00;;;;;;5085889;28;20087;-59
2022/05/18 09:57:29;;;;;;;9.13;6.47;;;31.20;67.80;;;;;;5085217;28;20044;-59
2022/05/18 10:00:06;;;;;;;7.80;4.90;;;30.90;72.90;;;;;;5085752;28;20054;-59
2022/05/18 10:08:19;;;;;;;6.80;6.10;;;31.40;69.00;;;;;;5085996;28;20048;-59
2022/05/18 10:10:46;;;;;;;7.60;6.05;;;31.70;71.00;;;;;;5067802;28;20139;-59
2022/05/18 10:13:15;;;;;;;8.95;7.00;;;31.80;65.30;;;;;;5085653;28;20410;-59
2022/05/18 10:15:58;;;;;;;10.02;8.63;;;31.70;63.90;;;;;;5067073;28;20060;-59
2022/05/18 10:18:28;;;;;;;11.10;8.32;;;31.40;66.30;;;;;;5085451;28;20052;-59
2022/05/18 10:21:09;;;;;;;10.60;7.70;;;31.30;70.10;;;;;;5067144;28;20062;-62
2022/05/18 10:23:45;;;;;;;10.70;7.40;;;31.50;72.40;;;;;;5067155;28;20044;-58
2022/05/18 10:26:27;;;;;;;10.40;8.43;;;31.70;73.40;;;;;;5085381;28;20508;-59
2022/05/18 10:28:56;;;;;;;11.70;9.35;;;31.50;72.90;;;;;;5066093;28;20074;-59
2022/05/18 10:31:33;;;;;;;10.60;9.48;;;31.40;73.30;;;;;;5066686;28;20052;-59
2022/05/18 10:34:12;;;;;;;10.90;9.35;;;31.50;75.40;;;;;;5066394;28;20086;-59
2022/05/18 10:36:50;;;;;;;12.32;9.35;;;31.50;80.00;;;;;;5084562;28;20048;-59
2022/05/18 10:39:31;;;;;;;11.55;10.23;;;31.60;76.60;;;;;;5066420;28;20787;-59
2022/05/18 10:41:58;;;;;;;11.40;9.90;;;31.30;76.20;;;;;;5084974;28;20101;-59
2022/05/18 10:44:33;;;;;;;12.65;9.65;;;31.30;76.10;;;;;;5049556;28;20500;-59
2022/05/18 10:47:14;;;;;;;14.10;10.57;;;31.40;74.50;;;;;;5049550;28;20052;-59
2022/05/18 10:49:42;;;;;;;12.32;11.10;;;31.80;69.00;;;;;;5084681;28;20159;-59
2022/05/18 10:52:29;;;;;;;14.65;10.13;;;31.40;70.40;;;;;;5084475;28;20044;-59
2022/05/18 10:55:06;;;;;;;10.82;9.73;;;31.20;74.80;;;;;;5066527;28;20052;-59
2022/05/18 10:57:35;;;;;;;12.35;9.52;;;31.00;69.00;;;;;;5088123;28;20070;-59
2022/05/18 11:00:10;;;;;;;12.05;8.98;;;31.10;63.50;;;;;;5070922;28;20467;-59
2022/05/18 11:03:03;;;;;;;10.45;8.32;;;31.20;65.80;;;;;;5071423;28;20051;-59
2022/05/18 11:05:46;;;;;;;11.68;8.70;;;31.20;65.90;;;;;;5070417;28;20130;-59
2022/05/18 11:08:16;;;;;;;13.88;8.68;;;31.00;63.30;;;;;;5070328;28;20052;-59
2022/05/18 11:11:04;;;;;;;10.98;5.95;;;31.20;59.20;;;;;;5053855;28;20167;-59
2022/05/18 11:14:06;;;;;;;8.35;6.22;;;31.20;55.60;;;;;;5069989;28;20058;-59
2022/05/18 11:16:57;;;;;;;11.75;7.15;;;31.30;52.80;;;;;;5082942;28;20096;-50
2022/05/18 11:19:54;;;;;;;8.55;6.65;;;31.50;51.90;;;;;;5067763;28;20530;-49
2022/05/18 11:22:38;;;;;;;9.38;7.43;;;31.50;51.50;;;;;;5068646;28;20828;-49
2022/05/18 11:25:25;;;;;;;9.82;8.25;;;31.60;52.50;;;;;;5067124;28;20048;-49
2022/05/18 11:27:59;;;;;;;10.93;8.35;;;31.20;55.40;;;;;;5067539;28;20044;-52
2022/05/18 11:30:52;;;;;;;12.68;8.95;;;31.40;56.60;;;;;;5066947;28;20048;-49
2022/05/18 11:33:24;;;;;;;9.00;7.85;;;30.80;55.90;;;;;;5023790;28;20059;-47
2022/05/18 11:36:21;;;;;;;10.35;9.20;;;31.40;56.90;;;;;;5048675;28;20801;-47
2022/05/18 11:39:03;;;;;;;13.95;9.10;;;31.60;55.40;;;;;;5048604;28;20048;-47
2022/05/18 11:41:50;;;;;;;10.57;8.45;;;31.70;55.20;;;;;;5053751;28;20110;-46
2022/05/18 11:44:55;;;;;;;13.07;10.70;;;32.00;55.30;;;;;;5063130;28;20064;-50
2022/05/18 11:48:02;;;;;;;12.27;9.98;;;32.20;55.60;;;;;;5062860;28;20217;-50
2022/05/18 11:50:44;;;;;;;12.73;10.35;;;32.60;53.80;;;;;;5068028;28;20048;-46
2022/05/18 11:53:34;;;;;;;11.23;10.13;;;32.50;55.40;;;;;;5068079;28;20045;-49
2022/05/18 11:56:27;;;;;;;16.52;14.35;;;33.10;55.80;;;;;;5046940;28;20495;-51
2022/05/18 11:59:19;;;;;;;14.35;12.73;;;33.10;56.50;;;;;;5032853;28;20139;-59
2022/05/18 12:02:15;;;;;;;14.10;12.68;;;32.90;53.90;;;;;;5065114;28;20851;-59
2022/05/18 12:04:54;;;;;;;12.75;10.65;;;32.50;56.10;;;;;;5048438;28;20083;-58
2022/05/18 12:07:30;;;;;;;11.27;10.05;;;31.60;58.30;;;;;;5063627;28;20044;-59
2022/05/18 12:10:12;;;;;;;12.30;8.52;;;31.10;59.50;;;;;;5056920;28;20683;-58
2022/05/18 12:12:53;;;;;;;14.20;11.63;;;31.00;62.40;;;;;;5062504;28;20075;-58
2022/05/18 12:15:42;;;;;;;11.98;10.60;;;30.30;64.90;;;;;;5067013;28;20098;-58
2022/05/18 12:18:48;;;;;;;12.25;10.63;;;30.80;69.80;;;;;;5056166;28;20052;-58
2022/05/18 12:21:22;;;;;;;13.68;10.05;;;30.60;73.10;;;;;;5082182;28;20588;-58
2022/05/18 12:23:56;;;;;;;13.48;11.70;;;30.60;72.40;;;;;;5065606;28;20056;-58
2022/05/18 12:26:23;;;;;;;13.73;10.90;;;30.50;75.50;;;;;;5066616;28;20114;-58
2022/05/18 12:28:50;;;;;;;14.30;11.63;;;30.40;81.20;;;;;;5065483;28;20378;-58
2022/05/18 12:31:18;;;;;;;12.35;10.90;;;30.70;85.30;;;;;;5065063;28;20154;-56
2022/05/18 12:34:04;;;;;;;11.38;10.27;;;30.40;85.70;;;;;;5064032;28;20045;-57
2022/05/18 12:36:41;;;;;;;12.27;9.77;;;29.80;93.10;;;;;;5060883;28;20040;-57
2022/05/18 12:39:17;;;;;;;10.98;8.90;;;29.50;93.00;;;;;;5073974;28;20045;-58
2022/05/18 12:41:48;;;;;;;10.35;9.15;;;29.50;95.90;;;;;;5066279;28;20045;-59
2022/05/18 12:44:25;;;;;;;11.55;9.98;;;29.20;96.40;;;;;;5064323;28;20493;-57
2022/05/18 12:47:01;;;;;;;13.00;10.40;;;29.00;97.90;;;;;;5066155;28;20052;-57
2022/05/18 12:49:37;;;;;;;9.52;8.02;;;28.90;98.00;;;;;;5066371;28;20044;-57
2022/05/18 12:52:29;;;;;;;11.30;8.88;;;29.20;98.60;;;;;;5066378;28;20084;-58
2022/05/18 12:55:00;;;;;;;14.50;11.93;;;29.40;97.10;;;;;;5027490;28;20052;-58
2022/05/18 12:57:50;;;;;;;15.20;11.95;;;29.50;97.30;;;;;;5065452;28;20056;-57
2022/05/18 13:00:25;;;;;;;12.50;11.27;;;30.00;96.90;;;;;;5064449;28;20052;-56
2022/05/18 13:03:10;;;;;;;23.98;21.55;;;30.10;96.70;;;;;;5064624;28;20056;-57
2022/05/18 13:05:41;;;;;;;14.07;12.25;;;29.80;94.20;;;;;;5064936;28;20096;-55
2022/05/18 13:08:19;;;;;;;14.05;11.23;;;30.20;94.40;;;;;;5065609;28;20501;-49
2022/05/18 13:11:15;;;;;;;13.25;11.85;;;30.30;95.10;;;;;;5067189;28;20048;-53
2022/05/18 13:14:01;;;;;;;18.08;16.00;;;30.00;94.00;;;;;;5065381;28;20052;-48
2022/05/18 13:16:39;;;;;;;15.95;13.75;;;30.00;95.60;;;;;;5050817;28;20476;-45
2022/05/18 13:19:18;;;;;;;14.07;12.48;;;30.10;95.00;;;;;;5085389;28;20050;-52